createdAt,value
2022-11-08T00:00:32.431Z,12.71
2022-11-08T00:03:00.774Z,12.74
2022-11-08T00:05:46.675Z,12.73
2022-11-08T00:08:32.482Z,12.67
2022-11-08T00:11:20.812Z,12.85
2022-11-08T00:14:00.813Z,12.86
2022-11-08T00:16:30.606Z,12.92
2022-11-08T00:18:58.902Z,12.91
2022-11-08T00:21:27.392Z,12.97
2022-11-08T00:23:55.663Z,12.98
2022-11-08T00:26:24.015Z,13.04
2022-11-08T00:28:52.335Z,13.07
2022-11-08T00:31:20.657Z,13.09
2022-11-08T00:33:50.426Z,13.17
2022-11-08T00:36:18.855Z,13.11
2022-11-08T00:38:47.207Z,13.02
2022-11-08T00:41:16.063Z,12.95
2022-11-08T00:43:44.575Z,12.62
2022-11-08T00:46:12.943Z,12.28
2022-11-08T00:48:41.280Z,12.80
2022-11-08T00:51:12.186Z,12.95
2022-11-08T00:53:41.517Z,13.03
2022-11-08T00:56:12.633Z,12.98
2022-11-08T00:58:41.735Z,12.66
2022-11-08T01:01:11.048Z,12.64
2022-11-08T01:03:39.541Z,11.55
2022-11-08T01:06:10.308Z,11.84
2022-11-08T01:08:38.800Z,12.13
2022-11-08T01:11:08.715Z,11.92
2022-11-08T01:13:37.277Z,11.61
2022-11-08T01:16:09.176Z,10.69
2022-11-08T01:18:37.769Z,10.32
2022-11-08T01:21:06.546Z,11.09
2022-11-08T01:23:36.553Z,11.80
2022-11-08T01:26:06.531Z,11.99
2022-11-08T01:28:35.358Z,12.14
2022-11-08T01:31:07.977Z,12.04
2022-11-08T01:33:36.316Z,11.94
2022-11-08T01:36:07.159Z,11.93
2022-11-08T01:38:37.265Z,11.93
2022-11-08T01:41:06.283Z,11.79
2022-11-08T01:43:39.965Z,11.81
2022-11-08T01:46:40.584Z,12.06
2022-11-08T01:49:33.879Z,11.88
2022-11-08T01:52:14.157Z,11.83
2022-11-08T01:54:49.554Z,11.82
2022-11-08T01:57:21.071Z,11.84
2022-11-08T01:59:52.476Z,11.45
2022-11-08T02:02:21.475Z,11.61
2022-11-08T02:04:49.940Z,11.55
2022-11-08T02:07:18.832Z,11.77
2022-11-08T02:09:49.324Z,11.90
2022-11-08T02:12:18.539Z,11.30
2022-11-08T02:14:47.083Z,11.52
2022-11-08T02:17:16.006Z,11.61
2022-11-08T02:19:46.878Z,11.57
2022-11-08T02:22:20.950Z,11.02
2022-11-08T02:24:50.692Z,11.32
2022-11-08T02:27:19.054Z,11.57
2022-11-08T02:29:47.388Z,11.34
2022-11-08T02:32:15.759Z,11.60
2022-11-08T02:34:45.588Z,11.69
2022-11-08T02:37:15.725Z,11.71
2022-11-08T02:39:44.348Z,11.59
2022-11-08T02:42:16.433Z,11.52
2022-11-08T02:44:44.880Z,11.34
2022-11-08T02:47:13.368Z,11.25
2022-11-08T02:49:41.807Z,11.29
2022-11-08T02:52:10.504Z,10.85
2022-11-08T02:54:38.891Z,11.07
2022-11-08T02:57:07.221Z,10.95
2022-11-08T02:59:36.904Z,10.67
2022-11-08T03:02:05.479Z,11.09
2022-11-08T03:04:33.906Z,11.20
2022-11-08T03:07:02.327Z,11.20
2022-11-08T03:09:30.720Z,11.24
2022-11-08T03:11:59.149Z,10.74
2022-11-08T03:14:27.519Z,10.87
2022-11-08T03:16:57.161Z,11.20
2022-11-08T03:19:25.529Z,11.08
2022-11-08T03:21:53.928Z,11.12
2022-11-08T03:24:22.273Z,11.15
2022-11-08T03:26:50.757Z,10.73
2022-11-08T03:29:19.233Z,10.83
2022-11-08T03:31:47.586Z,11.16
2022-11-08T03:34:17.320Z,10.90
2022-11-08T03:36:45.649Z,10.22
2022-11-08T03:39:14.025Z,10.34
2022-11-08T03:41:42.356Z,10.67
2022-11-08T03:44:10.796Z,9.45
2022-11-08T03:46:39.205Z,9.67
2022-11-08T03:49:07.632Z,10.27
2022-11-08T03:51:37.386Z,10.31
2022-11-08T03:54:05.844Z,9.92
2022-11-08T03:56:34.193Z,10.13
2022-11-08T03:59:02.522Z,10.31
2022-11-08T04:01:31.154Z,10.42
2022-11-08T04:03:59.660Z,10.21
2022-11-08T04:06:28.000Z,10.15
2022-11-08T04:08:57.784Z,9.38
2022-11-08T04:11:43.770Z,9.50
2022-11-08T04:14:29.691Z,9.28
2022-11-08T04:16:58.032Z,8.83
2022-11-08T04:19:43.807Z,8.72
2022-11-08T04:22:12.362Z,9.65
2022-11-08T04:24:42.103Z,10.13
2022-11-08T04:27:10.656Z,9.79
2022-11-08T04:29:39.026Z,10.21
2022-11-08T04:32:07.487Z,10.29
2022-11-08T04:34:35.836Z,9.29
2022-11-08T04:37:04.211Z,8.89
2022-11-08T04:39:32.624Z,8.86
2022-11-08T04:42:02.804Z,9.86
2022-11-08T04:44:31.164Z,9.57
2022-11-08T04:46:59.421Z,9.85
2022-11-08T04:49:27.711Z,9.91
2022-11-08T04:51:56.065Z,10.09
2022-11-08T04:54:24.381Z,9.85
2022-11-08T04:56:52.776Z,8.80
2022-11-08T04:59:22.568Z,9.80
2022-11-08T05:01:51.074Z,9.48
2022-11-08T05:04:19.754Z,9.39
2022-11-08T05:06:48.111Z,8.55
2022-11-08T05:09:16.424Z,8.49
2022-11-08T05:11:44.842Z,8.54
2022-11-08T05:14:13.192Z,9.53
2022-11-08T05:16:42.887Z,9.67
2022-11-08T05:19:13.339Z,9.59
2022-11-08T05:21:55.796Z,9.23
2022-11-08T05:24:24.066Z,9.36
2022-11-08T05:26:52.417Z,9.78
2022-11-08T05:29:20.735Z,9.93
2022-11-08T05:31:50.536Z,9.34
2022-11-08T05:34:18.850Z,9.48
2022-11-08T05:36:47.215Z,9.44
2022-11-08T05:39:15.553Z,9.34
2022-11-08T05:41:43.913Z,8.75
2022-11-08T05:44:12.301Z,9.30
2022-11-08T05:46:40.629Z,8.75
2022-11-08T05:49:10.309Z,8.73
2022-11-08T05:51:38.605Z,9.20
2022-11-08T05:54:08.088Z,9.07
2022-11-08T05:56:36.913Z,9.45
2022-11-08T05:59:05.311Z,9.54
2022-11-08T06:01:33.610Z,9.31
2022-11-08T06:04:02.158Z,8.74
2022-11-08T06:06:31.845Z,9.48
2022-11-08T06:09:00.163Z,9.47
2022-11-08T06:11:28.680Z,9.55
2022-11-08T06:13:57.399Z,9.24
2022-11-08T06:16:26.347Z,8.99
2022-11-08T06:18:54.766Z,9.39
2022-11-08T06:21:23.852Z,9.50
2022-11-08T06:23:55.350Z,9.70
2022-11-08T06:26:24.184Z,9.40
2022-11-08T06:28:52.973Z,9.43
2022-11-08T06:31:21.293Z,9.36
2022-11-08T06:33:50.357Z,9.28
2022-11-08T06:36:18.823Z,9.52
2022-11-08T06:38:47.164Z,9.36
2022-11-08T06:41:20.224Z,10.02
2022-11-08T06:43:49.138Z,9.66
2022-11-08T06:46:17.615Z,9.64
2022-11-08T06:48:45.925Z,9.33
2022-11-08T06:51:14.695Z,9.98
2022-11-08T06:53:43.157Z,9.78
2022-11-08T06:56:11.811Z,10.15
2022-11-08T06:58:42.528Z,10.48
2022-11-08T07:01:11.851Z,10.63
2022-11-08T07:03:40.627Z,10.73
2022-11-08T07:06:09.561Z,10.63
2022-11-08T07:08:38.136Z,10.98
2022-11-08T07:11:06.866Z,10.98
2022-11-08T07:13:35.609Z,11.15
2022-11-08T07:16:05.755Z,10.95
2022-11-08T07:18:34.095Z,11.38
2022-11-08T07:21:03.157Z,11.69
2022-11-08T07:23:32.420Z,11.83
2022-11-08T07:26:04.505Z,12.05
2022-11-08T07:28:33.153Z,12.02
2022-11-08T07:31:03.992Z,11.06
2022-11-08T07:33:33.794Z,11.06
2022-11-08T07:36:02.557Z,10.51
2022-11-08T07:38:32.445Z,11.38
2022-11-08T07:41:01.752Z,11.79
2022-11-08T07:43:30.596Z,11.75
2022-11-08T07:46:01.108Z,12.05
2022-11-08T07:48:30.825Z,12.07
2022-11-08T07:51:00.797Z,11.61
2022-11-08T07:53:29.428Z,11.98
2022-11-08T07:55:58.431Z,12.08
2022-11-08T07:58:27.087Z,12.41
2022-11-08T08:00:55.576Z,12.54
2022-11-08T08:03:24.359Z,12.92
2022-11-08T08:06:00.476Z,13.16
2022-11-08T08:08:31.894Z,12.59
2022-11-08T08:11:01.704Z,13.56
2022-11-08T08:13:30.343Z,13.55
2022-11-08T08:16:00.673Z,12.45
2022-11-08T08:18:29.632Z,12.68
2022-11-08T08:20:58.005Z,13.51
2022-11-08T08:23:26.455Z,13.83
2022-11-08T08:25:56.384Z,14.27
2022-11-08T08:28:24.784Z,13.53
2022-11-08T08:30:53.182Z,14.04
2022-11-08T08:33:28.377Z,14.52
2022-11-08T08:35:57.960Z,14.99
2022-11-08T08:38:26.290Z,14.91
2022-11-08T08:40:55.958Z,14.95
2022-11-08T08:43:24.359Z,14.77
2022-11-08T08:45:52.735Z,14.63
2022-11-08T08:48:21.368Z,14.43
2022-11-08T08:50:49.763Z,14.60
2022-11-08T08:53:18.447Z,15.60
2022-11-08T08:55:48.227Z,15.51
2022-11-08T08:58:18.299Z,16.06
2022-11-08T09:03:35.135Z,15.54
2022-11-08T09:06:03.513Z,15.25
2022-11-08T09:08:31.923Z,16.77
2022-11-08T09:11:01.871Z,16.17
2022-11-08T09:13:31.964Z,15.63
2022-11-08T09:16:01.437Z,17.45
2022-11-08T09:18:29.945Z,16.94
2022-11-08T09:20:58.908Z,17.11
2022-11-08T09:23:27.283Z,15.85
2022-11-08T09:25:59.285Z,15.14
2022-11-08T09:28:31.166Z,16.13
2022-11-08T09:31:06.064Z,17.30
2022-11-08T09:33:34.670Z,16.63
2022-11-08T09:36:03.308Z,16.59
2022-11-08T09:38:32.066Z,16.83
2022-11-08T09:41:12.666Z,16.66
2022-11-08T09:43:44.649Z,16.92
2022-11-08T09:46:18.009Z,16.76
2022-11-08T09:48:46.634Z,16.85
2022-11-08T09:51:17.531Z,16.62
2022-11-08T09:53:50.229Z,17.20
2022-11-08T09:56:25.091Z,17.66
2022-11-08T09:58:55.326Z,16.17
2022-11-08T10:01:27.463Z,16.73
2022-11-08T10:03:58.037Z,17.04
2022-11-08T10:06:50.980Z,17.35
2022-11-08T10:09:29.995Z,17.74
2022-11-08T10:12:06.548Z,17.51
2022-11-08T10:14:50.637Z,18.08
2022-11-08T10:17:38.058Z,18.53
2022-11-08T10:20:19.692Z,18.54
2022-11-08T10:22:53.866Z,18.85
2022-11-08T10:25:25.654Z,19.25
2022-11-08T10:27:56.098Z,19.94
2022-11-08T10:30:25.842Z,19.71
2022-11-08T10:32:57.038Z,19.94
2022-11-08T10:35:28.786Z,20.05
2022-11-08T10:37:59.294Z,19.71
2022-11-08T10:40:32.299Z,20.17
2022-11-08T10:43:08.147Z,20.76
2022-11-08T10:45:37.882Z,20.42
2022-11-08T10:48:07.930Z,20.51
2022-11-08T10:50:43.786Z,20.15
2022-11-08T10:53:18.193Z,20.76
2022-11-08T10:55:51.886Z,20.48
2022-11-08T10:58:37.399Z,20.81
2022-11-08T11:01:08.405Z,21.03
2022-11-08T11:03:38.053Z,20.92
2022-11-08T11:06:07.858Z,21.21
2022-11-08T11:08:36.404Z,20.48
2022-11-08T11:11:24.849Z,20.57
2022-11-08T11:14:07.875Z,20.69
2022-11-08T11:16:37.237Z,21.06
2022-11-08T11:19:07.761Z,21.16
2022-11-08T11:21:36.296Z,20.08
2022-11-08T11:24:09.444Z,21.37
2022-11-08T11:26:42.009Z,21.77
2022-11-08T11:29:19.723Z,21.91
2022-11-08T11:31:50.813Z,21.09
2022-11-08T11:34:42.599Z,20.08
2022-11-08T11:37:20.657Z,21.52
2022-11-08T11:39:55.749Z,21.39
2022-11-08T11:45:20.258Z,21.49
2022-11-08T11:47:53.204Z,20.14
2022-11-08T11:50:30.922Z,21.06
2022-11-08T11:53:00.404Z,20.93
2022-11-08T11:55:50.553Z,20.42
2022-11-08T11:58:30.970Z,20.63
2022-11-08T12:01:02.904Z,21.15
2022-11-08T12:03:50.884Z,20.99
2022-11-08T12:06:31.171Z,21.56
2022-11-08T12:09:19.393Z,21.72
2022-11-08T12:11:57.078Z,21.43
2022-11-08T12:14:36.901Z,21.61
2022-11-08T12:17:20.265Z,20.79
2022-11-08T12:19:57.156Z,21.82
2022-11-08T12:22:47.083Z,21.73
2022-11-08T12:25:21.561Z,22.08
2022-11-08T12:27:52.832Z,21.93
2022-11-08T12:30:23.013Z,21.61
2022-11-08T12:33:09.723Z,21.83
2022-11-08T12:35:41.554Z,21.45
2022-11-08T12:38:22.339Z,22.23
2022-11-08T12:40:55.504Z,22.26
2022-11-08T12:43:42.502Z,22.00
2022-11-08T12:46:13.180Z,21.76
2022-11-08T12:49:13.409Z,21.50
2022-11-08T12:51:52.451Z,22.67
2022-11-08T12:54:28.295Z,22.70
2022-11-08T12:56:59.307Z,22.59
2022-11-08T12:59:30.158Z,22.24
2022-11-08T13:01:58.918Z,22.54
2022-11-08T13:04:43.198Z,22.69
2022-11-08T13:07:23.719Z,22.17
2022-11-08T13:09:57.955Z,22.40
2022-11-08T13:12:35.298Z,22.16
2022-11-08T13:15:04.161Z,22.27
2022-11-08T13:17:32.729Z,22.49
2022-11-08T13:20:06.619Z,22.67
2022-11-08T13:23:08.150Z,22.83
2022-11-08T13:25:44.784Z,22.57
2022-11-08T13:28:38.770Z,22.92
2022-11-08T13:31:18.740Z,22.72
2022-11-08T13:33:53.934Z,22.99
2022-11-08T13:36:30.148Z,23.04
2022-11-08T13:39:06.104Z,22.80
2022-11-08T13:42:01.158Z,22.99
2022-11-08T13:44:57.907Z,23.01
2022-11-08T13:48:04.261Z,22.15
2022-11-08T13:51:17.694Z,21.82
2022-11-08T13:53:49.772Z,22.25
2022-11-08T13:56:46.891Z,22.95
2022-11-08T13:59:54.451Z,22.09
2022-11-08T14:02:41.613Z,23.05
2022-11-08T14:05:28.298Z,22.91
2022-11-08T14:08:20.882Z,23.47
2022-11-08T14:11:12.811Z,23.50
2022-11-08T14:14:06.332Z,23.46
2022-11-08T14:16:42.537Z,23.32
2022-11-08T14:19:31.470Z,23.35
2022-11-08T14:22:02.295Z,23.30
2022-11-08T14:24:34.054Z,23.20
2022-11-08T14:27:02.726Z,23.03
2022-11-08T14:29:32.699Z,22.85
2022-11-08T14:32:06.689Z,22.88
2022-11-08T14:34:37.161Z,22.45
2022-11-08T14:37:06.129Z,21.95
2022-11-08T14:39:35.920Z,22.28
2022-11-08T14:42:06.525Z,22.31
2022-11-08T14:44:35.981Z,22.25
2022-11-08T14:47:05.453Z,22.02
2022-11-08T14:49:35.627Z,21.83
2022-11-08T14:52:07.818Z,21.92
2022-11-08T14:54:39.894Z,21.31
2022-11-08T14:57:33.260Z,21.28
2022-11-08T15:00:11.130Z,21.32
2022-11-08T15:02:40.150Z,20.71
2022-11-08T15:05:30.342Z,20.75
2022-11-08T15:07:59.485Z,21.03
2022-11-08T15:10:28.287Z,20.55
2022-11-08T15:12:56.933Z,20.59
2022-11-08T15:15:29.047Z,20.77
2022-11-08T15:18:13.525Z,20.67
2022-11-08T15:20:42.336Z,20.68
2022-11-08T15:23:25.071Z,20.45
2022-11-08T15:25:58.141Z,20.45
2022-11-08T15:28:31.711Z,20.28
2022-11-08T15:31:03.437Z,19.31
2022-11-08T15:33:35.530Z,19.81
2022-11-08T15:36:04.687Z,19.23
2022-11-08T15:38:34.761Z,19.59
2022-11-08T15:41:06.430Z,19.65
2022-11-08T15:43:41.185Z,18.52
2022-11-08T15:46:29.701Z,18.78
2022-11-08T15:48:59.121Z,19.25
2022-11-08T15:51:27.502Z,19.60
2022-11-08T15:53:55.838Z,19.57
2022-11-08T15:56:24.191Z,19.68
2022-11-08T15:58:52.556Z,19.63
2022-11-08T16:01:22.974Z,19.59
2022-11-08T16:03:52.644Z,19.38
2022-11-08T16:06:21.018Z,19.09
2022-11-08T16:08:49.331Z,19.19
2022-11-08T16:11:19.939Z,19.16
2022-11-08T16:13:49.175Z,19.14
2022-11-08T16:16:18.140Z,18.54
2022-11-08T16:18:46.728Z,18.07
2022-11-08T16:21:16.602Z,16.93
2022-11-08T16:23:44.994Z,16.98
2022-11-08T16:26:16.792Z,17.43
2022-11-08T16:28:45.461Z,17.75
2022-11-08T16:31:15.336Z,17.63
2022-11-08T16:33:44.994Z,17.69
2022-11-08T16:36:19.302Z,17.69
2022-11-08T16:38:51.448Z,17.61
2022-11-08T16:41:20.048Z,17.46
2022-11-08T16:43:48.691Z,17.30
2022-11-08T16:46:17.706Z,16.20
2022-11-08T16:48:47.816Z,17.03
2022-11-08T16:51:20.456Z,17.15
2022-11-08T16:53:49.697Z,17.09
2022-11-08T16:56:18.351Z,17.04
2022-11-08T16:58:46.642Z,16.96
2022-11-08T17:01:16.952Z,16.87
2022-11-08T17:03:45.233Z,16.78
2022-11-08T17:06:18.223Z,16.88
2022-11-08T17:08:48.460Z,16.84
2022-11-08T17:11:18.234Z,16.74
2022-11-08T17:13:46.912Z,16.66
2022-11-08T17:16:16.721Z,16.51
2022-11-08T17:18:48.545Z,16.30
2022-11-08T17:24:09.800Z,16.45
2022-11-08T17:26:38.135Z,16.42
2022-11-08T17:29:08.075Z,16.45
2022-11-08T17:31:36.516Z,16.48
2022-11-08T17:34:04.839Z,16.51
2022-11-08T17:36:33.207Z,16.25
2022-11-08T17:39:01.597Z,16.04
2022-11-08T17:41:31.603Z,16.26
2022-11-08T17:43:59.968Z,16.18
2022-11-08T17:46:28.393Z,16.16
2022-11-08T17:48:56.756Z,16.13
2022-11-08T17:51:25.139Z,16.10
2022-11-08T17:53:53.510Z,15.77
2022-11-08T17:56:21.871Z,15.56
2022-11-08T17:58:51.587Z,15.81
2022-11-08T18:01:20.103Z,15.87
2022-11-08T18:03:48.587Z,15.90
2022-11-08T18:06:17.564Z,15.94
2022-11-08T18:08:45.991Z,15.96
2022-11-08T18:11:14.325Z,15.99
2022-11-08T18:13:42.677Z,16.02
2022-11-08T18:16:14.416Z,16.17
2022-11-08T18:18:43.049Z,16.02
2022-11-08T18:21:11.453Z,15.91
2022-11-08T18:23:41.310Z,15.97
2022-11-08T18:26:09.787Z,15.88
2022-11-08T18:28:38.289Z,15.97
2022-11-08T18:31:07.985Z,16.02
2022-11-08T18:33:38.535Z,16.05
2022-11-08T18:36:08.021Z,15.48
2022-11-08T18:38:39.060Z,15.10
2022-11-08T18:41:08.071Z,15.71
2022-11-08T18:43:36.645Z,15.83
2022-11-08T18:46:05.297Z,15.92
2022-11-08T18:48:35.661Z,16.01
2022-11-08T18:51:06.776Z,15.99
2022-11-08T18:53:35.550Z,15.84
2022-11-08T18:56:04.224Z,15.81
2022-11-08T18:58:32.641Z,15.74
2022-11-08T19:01:01.218Z,15.43
2022-11-08T19:03:30.075Z,15.51
2022-11-08T19:05:58.428Z,15.67
2022-11-08T19:08:30.260Z,15.72
2022-11-08T19:11:00.409Z,15.75
2022-11-08T19:13:30.660Z,15.65
2022-11-08T19:15:59.651Z,14.10
2022-11-08T19:18:28.767Z,13.74
2022-11-08T19:20:57.772Z,15.30
2022-11-08T19:23:26.305Z,15.54
2022-11-08T19:25:57.201Z,15.66
2022-11-08T19:28:30.284Z,15.69
2022-11-08T19:31:01.263Z,15.68
2022-11-08T19:33:30.948Z,15.00
2022-11-08T19:36:02.230Z,15.66
2022-11-08T19:38:30.799Z,15.80
2022-11-08T19:41:03.585Z,16.06
2022-11-08T19:43:32.013Z,16.03
2022-11-08T19:46:03.358Z,16.08
2022-11-08T19:48:32.747Z,15.95
2022-11-08T19:51:02.017Z,15.61
2022-11-08T19:53:30.436Z,15.84
2022-11-08T19:56:03.722Z,15.68
2022-11-08T19:58:32.942Z,15.78
2022-11-08T20:01:07.788Z,15.95
2022-11-08T20:03:36.654Z,15.86
2022-11-08T20:06:05.808Z,15.93
2022-11-08T20:08:34.601Z,15.94
2022-11-08T20:11:11.352Z,15.78
2022-11-08T20:13:39.788Z,15.33
2022-11-08T20:16:12.649Z,15.77
2022-11-08T20:18:41.151Z,15.32
2022-11-08T20:21:11.499Z,15.07
2022-11-08T20:23:40.187Z,15.36
2022-11-08T20:26:14.070Z,15.75
2022-11-08T20:28:50.959Z,15.61
2022-11-08T20:31:24.431Z,15.53
2022-11-08T20:33:53.926Z,15.61
2022-11-08T20:36:23.801Z,15.66
2022-11-08T20:38:55.902Z,14.91
2022-11-08T20:41:25.659Z,14.25
2022-11-08T20:43:53.995Z,13.86
2022-11-08T20:46:22.991Z,14.36
2022-11-08T20:48:51.573Z,14.37
2022-11-08T20:51:21.133Z,14.95
2022-11-08T20:53:49.885Z,15.25
2022-11-08T20:56:19.805Z,15.29
2022-11-08T20:58:50.419Z,15.22
2022-11-08T21:01:19.527Z,15.48
2022-11-08T21:03:48.371Z,15.31
2022-11-08T21:06:18.355Z,15.32
2022-11-08T21:09:16.555Z,15.24
2022-11-08T21:11:35.865Z,15.20
2022-11-08T21:14:06.317Z,15.06
2022-11-08T21:16:53.141Z,14.95
2022-11-08T21:19:25.373Z,15.02
2022-11-08T21:22:13.612Z,14.86
2022-11-08T21:24:42.001Z,14.56
2022-11-08T21:27:10.742Z,14.34
2022-11-08T21:29:40.694Z,14.42
2022-11-08T21:32:09.005Z,13.41
2022-11-08T21:34:37.468Z,14.16
2022-11-08T21:37:05.783Z,14.19
2022-11-08T21:39:34.120Z,13.58
2022-11-08T21:42:02.427Z,13.98
2022-11-08T21:44:30.693Z,13.99
2022-11-08T21:47:00.364Z,13.95
2022-11-08T21:49:28.719Z,13.32
2022-11-08T21:51:56.978Z,13.76
2022-11-08T21:54:25.414Z,13.99
2022-11-08T21:56:53.774Z,13.79
2022-11-08T21:59:22.117Z,13.59
2022-11-08T22:01:50.487Z,13.48
2022-11-08T22:04:20.376Z,13.61
2022-11-08T22:06:48.770Z,13.47
2022-11-08T22:09:17.220Z,12.95
2022-11-08T22:11:45.471Z,13.11
2022-11-08T22:14:13.808Z,13.43
2022-11-08T22:16:42.120Z,13.51
2022-11-08T22:19:10.559Z,13.46
2022-11-08T22:21:41.369Z,13.45
2022-11-08T22:24:11.852Z,13.39
2022-11-08T22:26:40.576Z,13.47
2022-11-08T22:29:09.058Z,13.29
2022-11-08T22:31:37.655Z,12.73
2022-11-08T22:34:07.892Z,13.14
2022-11-08T22:36:41.205Z,13.26
2022-11-08T22:39:14.849Z,13.38
2022-11-08T22:41:43.092Z,13.43
2022-11-08T22:44:12.872Z,13.34
2022-11-08T22:46:42.058Z,13.40
2022-11-08T22:49:10.797Z,13.42
2022-11-08T22:51:39.663Z,13.46
2022-11-08T22:54:08.075Z,13.28
2022-11-08T22:56:40.153Z,13.44
2022-11-08T22:59:08.806Z,13.30
2022-11-08T23:01:37.273Z,13.23
2022-11-08T23:04:05.677Z,13.05
2022-11-08T23:06:34.095Z,12.91
2022-11-08T23:09:02.509Z,12.73
2022-11-08T23:11:48.290Z,12.83
2022-11-08T23:14:37.700Z,12.91
2022-11-08T23:17:07.925Z,12.90
2022-11-08T23:19:53.815Z,12.74
2022-11-08T23:22:40.385Z,12.50
2022-11-08T23:25:08.858Z,12.78
2022-11-08T23:27:54.744Z,12.86
2022-11-08T23:30:41.894Z,12.96
2022-11-08T23:33:10.426Z,12.84
2022-11-08T23:35:58.871Z,12.69
2022-11-08T23:38:27.197Z,12.70
2022-11-08T23:41:12.950Z,12.74
2022-11-08T23:43:58.983Z,12.55
2022-11-08T23:46:28.685Z,12.06
2022-11-08T23:48:57.019Z,11.57
2022-11-08T23:51:25.377Z,12.32
2022-11-08T23:53:53.707Z,12.15
2022-11-08T23:56:23.382Z,11.06
2022-11-08T23:58:51.743Z,11.54
